SWA1907 KSLC-KPHX
Flight info
| Callsign | SWA1907 |
|---|---|
| Flight time | 1h 12m |
| Altitude | 35000 |
| Route | ARCHZ1 MLF GARDD CORKR TENTS BRUSR1 |
| Aircraft | B38M/M-SDE1FGHILORVWXY/HB1 |
Departure
| Time | 2026-05-08 04:03 |
|---|---|
| Airport | Salt Lake City International Airport (KSLC) |
Arrival
| Time | 2026-05-08 05:15 |
|---|---|
| Airport | Phoenix Sky Harbor International Airport (KPHX) |
| Time | Latitude | Longitude | Altitude | Speed | Heading |
|---|---|---|---|---|---|
| 2026-05-08 03:35 | 40.78839 | -111.98613 | 4233 ft | 0 kts | 355° |
| 2026-05-08 03:53 | 40.78831 | -111.98612 | 4233 ft | 4 kts | 355° |
| 2026-05-08 03:54 | 40.78804 | -111.98609 | 4233 ft | 4 kts | 347° |
| 2026-05-08 03:54 | 40.78781 | -111.98595 | 4233 ft | 4 kts | 315° |
| 2026-05-08 03:54 | 40.78771 | -111.98568 | 4233 ft | 3 kts | 265° |
| 2026-05-08 03:54 | 40.78771 | -111.98565 | 4233 ft | 1 kts | 264° |
| 2026-05-08 03:57 | 40.78770 | -111.98577 | 4233 ft | 3 kts | 264° |
| 2026-05-08 03:57 | 40.78765 | -111.98645 | 4233 ft | 13 kts | 264° |
| 2026-05-08 03:57 | 40.78755 | -111.98797 | 4233 ft | 18 kts | 265° |
| 2026-05-08 03:57 | 40.78744 | -111.98971 | 4233 ft | 19 kts | 264° |
| 2026-05-08 03:58 | 40.78731 | -111.99135 | 4233 ft | 18 kts | 264° |
| 2026-05-08 03:58 | 40.78718 | -111.99300 | 4233 ft | 19 kts | 265° |
| 2026-05-08 03:58 | 40.78694 | -111.99460 | 4234 ft | 14 kts | 218° |
| 2026-05-08 03:58 | 40.78608 | -111.99458 | 4233 ft | 13 kts | 174° |
| 2026-05-08 03:59 | 40.78515 | -111.99447 | 4234 ft | 14 kts | 174° |
| 2026-05-08 03:59 | 40.78414 | -111.99434 | 4233 ft | 15 kts | 174° |
| 2026-05-08 03:59 | 40.78303 | -111.99423 | 4233 ft | 18 kts | 176° |
| 2026-05-08 03:59 | 40.78161 | -111.99410 | 4233 ft | 23 kts | 176° |
| 2026-05-08 04:00 | 40.78046 | -111.99425 | 4242 ft | 26 kts | 187° |
| 2026-05-08 04:00 | 40.77860 | -111.99424 | 4251 ft | 27 kts | 176° |
| 2026-05-08 04:00 | 40.77670 | -111.99405 | 4252 ft | 27 kts | 175° |
| 2026-05-08 04:00 | 40.77517 | -111.99477 | 4253 ft | 22 kts | 258° |
| 2026-05-08 04:01 | 40.77548 | -111.99554 | 4254 ft | 7 kts | 355° |
| 2026-05-08 04:01 | 40.77578 | -111.99556 | 4255 ft | 1 kts | 355° |
| 2026-05-08 04:01 | 40.77580 | -111.99556 | 4255 ft | 1 kts | 355° |
| 2026-05-08 04:01 | 40.77605 | -111.99559 | 4255 ft | 13 kts | 355° |
| 2026-05-08 04:02 | 40.77937 | -111.99600 | 4252 ft | 82 kts | 354° |
| 2026-05-08 04:02 | 40.78706 | -111.99685 | 4235 ft | 140 kts | 354° |
| 2026-05-08 04:02 | 40.79841 | -111.99830 | 4293 ft | 180 kts | 356° |
| 2026-05-08 04:02 | 40.81113 | -111.99959 | 4820 ft | 186 kts | 353° |
| 2026-05-08 04:03 | 40.82338 | -112.00536 | 5404 ft | 192 kts | 321° |
| 2026-05-08 04:03 | 40.83146 | -112.03640 | 6678 ft | 202 kts | 271° |
| 2026-05-08 04:03 | 40.83135 | -112.05596 | 6966 ft | 222 kts | 268° |
| 2026-05-08 04:04 | 40.82745 | -112.07681 | 7166 ft | 249 kts | 246° |
| 2026-05-08 04:04 | 40.81930 | -112.09744 | 7671 ft | 258 kts | 245° |
| 2026-05-08 04:04 | 40.81094 | -112.11927 | 8238 ft | 274 kts | 245° |
| 2026-05-08 04:04 | 40.80224 | -112.14244 | 8839 ft | 283 kts | 246° |
| 2026-05-08 04:05 | 40.79364 | -112.16553 | 9706 ft | 284 kts | 247° |
| 2026-05-08 04:05 | 40.78490 | -112.18912 | 10391 ft | 292 kts | 247° |
| 2026-05-08 04:05 | 40.77572 | -112.21395 | 10828 ft | 308 kts | 247° |
| 2026-05-08 04:05 | 40.76607 | -112.23977 | 11470 ft | 315 kts | 244° |
| 2026-05-08 04:06 | 40.75203 | -112.26219 | 12385 ft | 322 kts | 222° |
| 2026-05-08 04:06 | 40.73202 | -112.27644 | 13286 ft | 333 kts | 201° |
| 2026-05-08 04:06 | 40.70931 | -112.28202 | 14130 ft | 339 kts | 193° |
| 2026-05-08 04:06 | 40.68576 | -112.28697 | 14837 ft | 346 kts | 194° |
| 2026-05-08 04:07 | 40.66175 | -112.29195 | 15541 ft | 352 kts | 193° |
| 2026-05-08 04:07 | 40.63728 | -112.29697 | 16243 ft | 358 kts | 193° |
| 2026-05-08 04:07 | 40.61243 | -112.30203 | 16925 ft | 364 kts | 193° |
| 2026-05-08 04:07 | 40.58716 | -112.30717 | 17612 ft | 370 kts | 193° |
| 2026-05-08 04:08 | 40.56164 | -112.31305 | 18275 ft | 374 kts | 200° |
| 2026-05-08 04:08 | 40.53670 | -112.32316 | 18835 ft | 377 kts | 202° |
| 2026-05-08 04:08 | 40.51142 | -112.33351 | 19430 ft | 382 kts | 201° |
| 2026-05-08 04:08 | 40.48594 | -112.34393 | 20007 ft | 386 kts | 201° |
| 2026-05-08 04:09 | 40.46047 | -112.35435 | 20581 ft | 390 kts | 201° |
| 2026-05-08 04:09 | 40.43406 | -112.36514 | 21150 ft | 395 kts | 201° |
| 2026-05-08 04:09 | 40.40771 | -112.37590 | 21701 ft | 399 kts | 200° |
| 2026-05-08 04:09 | 40.38106 | -112.38677 | 22250 ft | 403 kts | 200° |
| 2026-05-08 04:10 | 40.35410 | -112.39776 | 22756 ft | 408 kts | 200° |
| 2026-05-08 04:10 | 40.32718 | -112.40872 | 23283 ft | 412 kts | 200° |
| 2026-05-08 04:10 | 40.29967 | -112.41993 | 23766 ft | 416 kts | 200° |
| 2026-05-08 04:10 | 40.27195 | -112.43121 | 24212 ft | 419 kts | 200° |
| 2026-05-08 04:11 | 40.24404 | -112.44255 | 24664 ft | 422 kts | 200° |
| 2026-05-08 04:11 | 40.21584 | -112.45399 | 25115 ft | 425 kts | 200° |
| 2026-05-08 04:11 | 40.18757 | -112.46565 | 25510 ft | 427 kts | 203° |
| 2026-05-08 04:11 | 40.16113 | -112.48260 | 26006 ft | 423 kts | 213° |
| 2026-05-08 04:12 | 40.13513 | -112.50107 | 26405 ft | 427 kts | 212° |
| 2026-05-08 04:12 | 40.10880 | -112.51956 | 26831 ft | 430 kts | 212° |
| 2026-05-08 04:12 | 40.08243 | -112.53811 | 27255 ft | 433 kts | 212° |
| 2026-05-08 04:12 | 40.05585 | -112.55679 | 27679 ft | 435 kts | 213° |
| 2026-05-08 04:13 | 40.02909 | -112.57559 | 28093 ft | 438 kts | 213° |
| 2026-05-08 04:13 | 40.00211 | -112.59452 | 28504 ft | 441 kts | 213° |
| 2026-05-08 04:13 | 39.97508 | -112.61348 | 28898 ft | 444 kts | 213° |
| 2026-05-08 04:13 | 39.94773 | -112.63264 | 29295 ft | 447 kts | 213° |
| 2026-05-08 04:14 | 39.92033 | -112.65180 | 29660 ft | 449 kts | 213° |
| 2026-05-08 04:14 | 39.89273 | -112.67110 | 30017 ft | 452 kts | 213° |
| 2026-05-08 04:14 | 39.86487 | -112.69056 | 30330 ft | 455 kts | 213° |
| 2026-05-08 04:14 | 39.83691 | -112.71009 | 30664 ft | 457 kts | 213° |
| 2026-05-08 04:15 | 39.80918 | -112.72942 | 30953 ft | 459 kts | 213° |
| 2026-05-08 04:15 | 39.78094 | -112.74910 | 31275 ft | 462 kts | 213° |
| 2026-05-08 04:15 | 39.75258 | -112.76883 | 31590 ft | 464 kts | 213° |
| 2026-05-08 04:15 | 39.72410 | -112.78863 | 31875 ft | 466 kts | 213° |
| 2026-05-08 04:16 | 39.69519 | -112.80822 | 32159 ft | 471 kts | 208° |
| 2026-05-08 04:16 | 39.66351 | -112.82039 | 32507 ft | 479 kts | 192° |
| 2026-05-08 04:16 | 39.63023 | -112.82587 | 32797 ft | 483 kts | 191° |
| 2026-05-08 04:16 | 39.59676 | -112.83135 | 33063 ft | 486 kts | 190° |
| 2026-05-08 04:17 | 39.56308 | -112.83659 | 33466 ft | 486 kts | 189° |
| 2026-05-08 04:17 | 39.52948 | -112.84166 | 33878 ft | 486 kts | 189° |
| 2026-05-08 04:17 | 39.49583 | -112.84669 | 34233 ft | 485 kts | 189° |
| 2026-05-08 04:17 | 39.46235 | -112.85168 | 34581 ft | 484 kts | 189° |
| 2026-05-08 04:18 | 39.42929 | -112.85660 | 34884 ft | 485 kts | 189° |
| 2026-05-08 04:18 | 39.39568 | -112.86160 | 34955 ft | 484 kts | 189° |
| 2026-05-08 04:18 | 39.32906 | -112.87149 | 34901 ft | 481 kts | 189° |
| 2026-05-08 04:19 | 39.26247 | -112.88136 | 34898 ft | 481 kts | 189° |
| 2026-05-08 04:19 | 39.19589 | -112.89121 | 34896 ft | 480 kts | 189° |
| 2026-05-08 04:20 | 39.12946 | -112.90102 | 34896 ft | 480 kts | 189° |
| 2026-05-08 04:20 | 39.06352 | -112.91074 | 34902 ft | 480 kts | 189° |
| 2026-05-08 04:21 | 38.99707 | -112.92050 | 34925 ft | 480 kts | 189° |
| 2026-05-08 04:21 | 38.93049 | -112.93028 | 34892 ft | 479 kts | 189° |
| 2026-05-08 04:22 | 38.86427 | -112.93999 | 34904 ft | 480 kts | 189° |
| 2026-05-08 04:22 | 38.79786 | -112.94970 | 34898 ft | 480 kts | 188° |
| 2026-05-08 04:23 | 38.73203 | -112.95931 | 34906 ft | 478 kts | 189° |
| 2026-05-08 04:23 | 38.66596 | -112.96893 | 34968 ft | 478 kts | 189° |
| 2026-05-08 04:24 | 38.59980 | -112.97856 | 34999 ft | 478 kts | 189° |
| 2026-05-08 04:24 | 38.53366 | -112.98816 | 35033 ft | 477 kts | 188° |
| 2026-05-08 04:25 | 38.46778 | -112.99771 | 35044 ft | 476 kts | 188° |
| 2026-05-08 04:25 | 38.40186 | -113.00724 | 35046 ft | 476 kts | 188° |
| 2026-05-08 04:26 | 38.33638 | -113.00514 | 35040 ft | 477 kts | 167° |
| 2026-05-08 04:26 | 38.27105 | -112.98647 | 35005 ft | 480 kts | 168° |
| 2026-05-08 04:27 | 38.20595 | -112.96742 | 34985 ft | 480 kts | 167° |
| 2026-05-08 04:27 | 38.14088 | -112.94819 | 34952 ft | 480 kts | 167° |
| 2026-05-08 04:28 | 38.07589 | -112.92901 | 34925 ft | 479 kts | 167° |
| 2026-05-08 04:28 | 38.01091 | -112.90986 | 34933 ft | 480 kts | 167° |
| 2026-05-08 04:29 | 37.94621 | -112.89084 | 34981 ft | 479 kts | 167° |
| 2026-05-08 04:29 | 37.88117 | -112.87174 | 35015 ft | 479 kts | 167° |
| 2026-05-08 04:30 | 37.81632 | -112.85274 | 35036 ft | 479 kts | 167° |
| 2026-05-08 04:30 | 37.75133 | -112.83373 | 35048 ft | 478 kts | 167° |
| 2026-05-08 04:31 | 37.68655 | -112.81482 | 35042 ft | 477 kts | 167° |
| 2026-05-08 04:31 | 37.62229 | -112.79609 | 35024 ft | 477 kts | 167° |
| 2026-05-08 04:32 | 37.55754 | -112.77726 | 35014 ft | 478 kts | 167° |
| 2026-05-08 04:32 | 37.49258 | -112.75839 | 34971 ft | 479 kts | 167° |
| 2026-05-08 04:33 | 37.42763 | -112.73955 | 34972 ft | 479 kts | 167° |
| 2026-05-08 04:33 | 37.36265 | -112.72075 | 34953 ft | 478 kts | 167° |
| 2026-05-08 04:34 | 37.29779 | -112.70202 | 34960 ft | 479 kts | 166° |
| 2026-05-08 04:34 | 37.23281 | -112.68328 | 34944 ft | 479 kts | 166° |
| 2026-05-08 04:35 | 37.16786 | -112.66458 | 34956 ft | 479 kts | 166° |
| 2026-05-08 04:35 | 37.10333 | -112.64603 | 34954 ft | 479 kts | 166° |
| 2026-05-08 04:36 | 37.03840 | -112.62859 | 34953 ft | 476 kts | 169° |
| 2026-05-08 04:36 | 36.97323 | -112.61305 | 34968 ft | 477 kts | 168° |
| 2026-05-08 04:37 | 36.90812 | -112.59731 | 34960 ft | 477 kts | 168° |
| 2026-05-08 04:37 | 36.84306 | -112.58161 | 34953 ft | 475 kts | 168° |
| 2026-05-08 04:38 | 36.77860 | -112.56608 | 34958 ft | 475 kts | 168° |
| 2026-05-08 04:38 | 36.71360 | -112.55044 | 34967 ft | 475 kts | 168° |
| 2026-05-08 04:39 | 36.64868 | -112.53485 | 34967 ft | 474 kts | 168° |
| 2026-05-08 04:39 | 36.58393 | -112.51932 | 34971 ft | 473 kts | 168° |
| 2026-05-08 04:40 | 36.51965 | -112.50394 | 34981 ft | 474 kts | 168° |
| 2026-05-08 04:40 | 36.45494 | -112.48847 | 34981 ft | 474 kts | 168° |
| 2026-05-08 04:41 | 36.39008 | -112.47301 | 35012 ft | 474 kts | 168° |
| 2026-05-08 04:41 | 36.32525 | -112.45758 | 34965 ft | 474 kts | 168° |
| 2026-05-08 04:42 | 36.26029 | -112.44213 | 34988 ft | 476 kts | 168° |
| 2026-05-08 04:42 | 36.19525 | -112.42666 | 35016 ft | 475 kts | 168° |
| 2026-05-08 04:43 | 36.13038 | -112.41131 | 35059 ft | 475 kts | 168° |
| 2026-05-08 04:43 | 36.06485 | -112.40239 | 35085 ft | 474 kts | 186° |
| 2026-05-08 04:44 | 35.99879 | -112.40803 | 35097 ft | 476 kts | 184° |
| 2026-05-08 04:44 | 35.93312 | -112.41359 | 35108 ft | 476 kts | 184° |
| 2026-05-08 04:45 | 35.90041 | -112.41644 | 34986 ft | 465 kts | 184° |
| 2026-05-08 04:45 | 35.86841 | -112.41923 | 34678 ft | 458 kts | 184° |
| 2026-05-08 04:45 | 35.83673 | -112.42199 | 34150 ft | 455 kts | 184° |
| 2026-05-08 04:45 | 35.80513 | -112.42475 | 33578 ft | 454 kts | 184° |
| 2026-05-08 04:46 | 35.77361 | -112.42749 | 33014 ft | 453 kts | 184° |
| 2026-05-08 04:46 | 35.74232 | -112.43022 | 32534 ft | 450 kts | 184° |
| 2026-05-08 04:46 | 35.71110 | -112.43293 | 32086 ft | 447 kts | 184° |
| 2026-05-08 04:46 | 35.68021 | -112.43561 | 31629 ft | 444 kts | 184° |
| 2026-05-08 04:47 | 35.64951 | -112.43828 | 31146 ft | 441 kts | 184° |
| 2026-05-08 04:47 | 35.61937 | -112.44090 | 30698 ft | 439 kts | 184° |
| 2026-05-08 04:47 | 35.58887 | -112.44355 | 30258 ft | 437 kts | 184° |
| 2026-05-08 04:47 | 35.55857 | -112.44617 | 29780 ft | 435 kts | 184° |
| 2026-05-08 04:48 | 35.52842 | -112.44878 | 29317 ft | 432 kts | 183° |
| 2026-05-08 04:48 | 35.49854 | -112.45117 | 29031 ft | 424 kts | 180° |
| 2026-05-08 04:48 | 35.46987 | -112.44775 | 29105 ft | 411 kts | 167° |
| 2026-05-08 04:48 | 35.44171 | -112.44187 | 29073 ft | 409 kts | 169° |
| 2026-05-08 04:49 | 35.38586 | -112.43098 | 29120 ft | 409 kts | 169° |
| 2026-05-08 04:49 | 35.32957 | -112.41993 | 29136 ft | 409 kts | 169° |
| 2026-05-08 04:50 | 35.27343 | -112.40892 | 29141 ft | 408 kts | 169° |
| 2026-05-08 04:50 | 35.22678 | -112.39978 | 29139 ft | 408 kts | 169° |
| 2026-05-08 04:51 | 35.17123 | -112.38824 | 28830 ft | 399 kts | 168° |
| 2026-05-08 04:51 | 35.14424 | -112.38235 | 28549 ft | 388 kts | 168° |
| 2026-05-08 04:51 | 35.11819 | -112.37670 | 28552 ft | 376 kts | 168° |
| 2026-05-08 04:52 | 35.06537 | -112.36527 | 28553 ft | 396 kts | 168° |
| 2026-05-08 04:52 | 35.01019 | -112.35337 | 28541 ft | 405 kts | 168° |
| 2026-05-08 04:53 | 34.95507 | -112.34149 | 28571 ft | 405 kts | 168° |
| 2026-05-08 04:53 | 34.89939 | -112.32950 | 28597 ft | 405 kts | 168° |
| 2026-05-08 04:54 | 34.84393 | -112.31741 | 28497 ft | 405 kts | 167° |
| 2026-05-08 04:54 | 34.81631 | -112.31132 | 28222 ft | 403 kts | 167° |
| 2026-05-08 04:54 | 34.78871 | -112.30524 | 27788 ft | 402 kts | 167° |
| 2026-05-08 04:55 | 34.76127 | -112.29921 | 27347 ft | 401 kts | 167° |
| 2026-05-08 04:55 | 34.73384 | -112.29318 | 26927 ft | 400 kts | 167° |
| 2026-05-08 04:55 | 34.70648 | -112.28717 | 26504 ft | 398 kts | 167° |
| 2026-05-08 04:55 | 34.67954 | -112.28125 | 26083 ft | 398 kts | 167° |
| 2026-05-08 04:56 | 34.65235 | -112.27529 | 25654 ft | 397 kts | 168° |
| 2026-05-08 04:56 | 34.62522 | -112.26934 | 25221 ft | 396 kts | 167° |
| 2026-05-08 04:56 | 34.59811 | -112.26340 | 24788 ft | 396 kts | 167° |
| 2026-05-08 04:56 | 34.57103 | -112.25748 | 24352 ft | 395 kts | 167° |
| 2026-05-08 04:57 | 34.54397 | -112.25156 | 23905 ft | 395 kts | 167° |
| 2026-05-08 04:57 | 34.51681 | -112.24562 | 23439 ft | 395 kts | 168° |
| 2026-05-08 04:57 | 34.48979 | -112.23972 | 22935 ft | 395 kts | 168° |
| 2026-05-08 04:57 | 34.46280 | -112.23382 | 22483 ft | 393 kts | 168° |
| 2026-05-08 04:58 | 34.43608 | -112.22729 | 21939 ft | 392 kts | 166° |
| 2026-05-08 04:58 | 34.40937 | -112.22025 | 21523 ft | 393 kts | 165° |
| 2026-05-08 04:58 | 34.38265 | -112.21331 | 21135 ft | 391 kts | 166° |
| 2026-05-08 04:58 | 34.35610 | -112.20645 | 20710 ft | 390 kts | 166° |
| 2026-05-08 04:59 | 34.32963 | -112.19963 | 20287 ft | 388 kts | 166° |
| 2026-05-08 04:59 | 34.30327 | -112.19284 | 19882 ft | 386 kts | 166° |
| 2026-05-08 04:59 | 34.27701 | -112.18608 | 19470 ft | 385 kts | 166° |
| 2026-05-08 04:59 | 34.25090 | -112.17936 | 19043 ft | 383 kts | 166° |
| 2026-05-08 05:00 | 34.22487 | -112.17268 | 18630 ft | 382 kts | 166° |
| 2026-05-08 05:00 | 34.19923 | -112.16609 | 18233 ft | 380 kts | 166° |
| 2026-05-08 05:00 | 34.17340 | -112.15946 | 17759 ft | 379 kts | 166° |
| 2026-05-08 05:00 | 34.14773 | -112.15287 | 17329 ft | 376 kts | 166° |
| 2026-05-08 05:01 | 34.12217 | -112.14632 | 16919 ft | 374 kts | 166° |
| 2026-05-08 05:01 | 34.09678 | -112.13983 | 16504 ft | 372 kts | 166° |
| 2026-05-08 05:01 | 34.07191 | -112.13120 | 15840 ft | 375 kts | 158° |
| 2026-05-08 05:01 | 34.04727 | -112.12068 | 15300 ft | 377 kts | 159° |
| 2026-05-08 05:02 | 34.02236 | -112.11039 | 14718 ft | 380 kts | 159° |
| 2026-05-08 05:02 | 33.99721 | -112.10018 | 14108 ft | 383 kts | 160° |
| 2026-05-08 05:02 | 33.97179 | -112.08996 | 13491 ft | 386 kts | 160° |
| 2026-05-08 05:02 | 33.94617 | -112.07971 | 12805 ft | 389 kts | 160° |
| 2026-05-08 05:03 | 33.92041 | -112.06942 | 12170 ft | 390 kts | 160° |
| 2026-05-08 05:03 | 33.89469 | -112.05915 | 11594 ft | 390 kts | 160° |
| 2026-05-08 05:03 | 33.86896 | -112.04878 | 11026 ft | 389 kts | 160° |
| 2026-05-08 05:03 | 33.84345 | -112.03840 | 10558 ft | 385 kts | 160° |
| 2026-05-08 05:04 | 33.81817 | -112.02815 | 10098 ft | 381 kts | 160° |
| 2026-05-08 05:04 | 33.79348 | -112.01814 | 9655 ft | 378 kts | 161° |
| 2026-05-08 05:04 | 33.76867 | -112.00810 | 9168 ft | 375 kts | 161° |
| 2026-05-08 05:04 | 33.74421 | -111.99820 | 8939 ft | 366 kts | 162° |
| 2026-05-08 05:05 | 33.72058 | -111.98864 | 8922 ft | 349 kts | 161° |
| 2026-05-08 05:05 | 33.69813 | -111.97957 | 8905 ft | 334 kts | 162° |
| 2026-05-08 05:05 | 33.67654 | -111.97085 | 8857 ft | 321 kts | 162° |
| 2026-05-08 05:05 | 33.65578 | -111.96247 | 8774 ft | 309 kts | 161° |
| 2026-05-08 05:06 | 33.63540 | -111.95424 | 8462 ft | 307 kts | 162° |
| 2026-05-08 05:06 | 33.61519 | -111.94607 | 8104 ft | 306 kts | 162° |
| 2026-05-08 05:06 | 33.59526 | -111.93802 | 7770 ft | 297 kts | 162° |
| 2026-05-08 05:06 | 33.57604 | -111.93026 | 7488 ft | 286 kts | 163° |
| 2026-05-08 05:07 | 33.55753 | -111.92278 | 7204 ft | 275 kts | 163° |
| 2026-05-08 05:07 | 33.54064 | -111.91338 | 7023 ft | 263 kts | 141° |
| 2026-05-08 05:07 | 33.53027 | -111.89632 | 6847 ft | 250 kts | 107° |
| 2026-05-08 05:07 | 33.52808 | -111.87658 | 6839 ft | 233 kts | 89° |
| 2026-05-08 05:08 | 33.52770 | -111.85762 | 6789 ft | 227 kts | 89° |
| 2026-05-08 05:08 | 33.52772 | -111.83857 | 6406 ft | 229 kts | 87° |
| 2026-05-08 05:08 | 33.52807 | -111.81951 | 5996 ft | 229 kts | 87° |
| 2026-05-08 05:08 | 33.52843 | -111.80039 | 5536 ft | 228 kts | 87° |
| 2026-05-08 05:09 | 33.52819 | -111.78150 | 5140 ft | 224 kts | 102° |
| 2026-05-08 05:09 | 33.52054 | -111.76620 | 4872 ft | 210 kts | 146° |
| 2026-05-08 05:09 | 33.50757 | -111.75949 | 4744 ft | 203 kts | 174° |
| 2026-05-08 05:09 | 33.49377 | -111.76049 | 4673 ft | 197 kts | 203° |
| 2026-05-08 05:10 | 33.48246 | -111.76903 | 4623 ft | 190 kts | 229° |
| 2026-05-08 05:10 | 33.46344 | -111.78950 | 4494 ft | 183 kts | 224° |
| 2026-05-08 05:10 | 33.45375 | -111.79933 | 4352 ft | 182 kts | 224° |
| 2026-05-08 05:11 | 33.44516 | -111.81010 | 4136 ft | 175 kts | 245° |
| 2026-05-08 05:11 | 33.44137 | -111.82368 | 3874 ft | 167 kts | 263° |
| 2026-05-08 05:11 | 33.44066 | -111.83670 | 3668 ft | 147 kts | 271° |
| 2026-05-08 05:11 | 33.44063 | -111.84847 | 3459 ft | 139 kts | 271° |
| 2026-05-08 05:12 | 33.44065 | -111.86002 | 3268 ft | 138 kts | 271° |
| 2026-05-08 05:12 | 33.44066 | -111.87149 | 3057 ft | 138 kts | 271° |
| 2026-05-08 05:12 | 33.44068 | -111.88298 | 2873 ft | 138 kts | 271° |
| 2026-05-08 05:12 | 33.44070 | -111.89448 | 2703 ft | 137 kts | 271° |
| 2026-05-08 05:13 | 33.44071 | -111.90583 | 2521 ft | 136 kts | 271° |
| 2026-05-08 05:13 | 33.44072 | -111.91717 | 2347 ft | 136 kts | 271° |
| 2026-05-08 05:13 | 33.44073 | -111.92864 | 2184 ft | 139 kts | 270° |
| 2026-05-08 05:13 | 33.44076 | -111.94018 | 2029 ft | 142 kts | 270° |
| 2026-05-08 05:14 | 33.44077 | -111.95228 | 1848 ft | 145 kts | 270° |
| 2026-05-08 05:14 | 33.44078 | -111.96437 | 1654 ft | 145 kts | 269° |
| 2026-05-08 05:14 | 33.44078 | -111.97644 | 1442 ft | 145 kts | 270° |
| 2026-05-08 05:14 | 33.44084 | -111.98842 | 1252 ft | 146 kts | 270° |
| 2026-05-08 05:15 | 33.44081 | -112.00040 | 1125 ft | 135 kts | 269° |
| 2026-05-08 05:15 | 33.44082 | -112.00865 | 1126 ft | 87 kts | 270° |
| 2026-05-08 05:15 | 33.44082 | -112.01107 | 1129 ft | 0 kts | 267° |
| 2026-05-08 05:16 | 33.44080 | -112.01138 | 1131 ft | 18 kts | 267° |
| 2026-05-08 05:16 | 33.44063 | -112.01321 | 1132 ft | 23 kts | 236° |
| 2026-05-08 05:16 | 33.43974 | -112.01312 | 1125 ft | 15 kts | 91° |
| 2026-05-08 05:16 | 33.43974 | -112.01174 | 1125 ft | 18 kts | 90° |
| 2026-05-08 05:17 | 33.43974 | -112.01000 | 1124 ft | 25 kts | 90° |
| 2026-05-08 05:17 | 33.43974 | -112.00777 | 1120 ft | 28 kts | 90° |
| 2026-05-08 05:17 | 33.43975 | -112.00535 | 1120 ft | 30 kts | 90° |
| 2026-05-08 05:17 | 33.43916 | -112.00381 | 1121 ft | 20 kts | 174° |
| 2026-05-08 05:18 | 33.43763 | -112.00380 | 1123 ft | 24 kts | 180° |
| 2026-05-08 05:18 | 33.43585 | -112.00382 | 1123 ft | 27 kts | 180° |
| 2026-05-08 05:18 | 33.43400 | -112.00383 | 1123 ft | 26 kts | 180° |
| 2026-05-08 05:18 | 33.43281 | -112.00297 | 1127 ft | 23 kts | 92° |
| 2026-05-08 05:19 | 33.43283 | -112.00101 | 1121 ft | 25 kts | 89° |
| 2026-05-08 05:19 | 33.43285 | -111.99885 | 1123 ft | 27 kts | 89° |
| 2026-05-08 05:19 | 33.43283 | -111.99676 | 1120 ft | 23 kts | 90° |
| 2026-05-08 05:19 | 33.43312 | -111.99651 | 1123 ft | 6 kts | 0° |
| 2026-05-08 05:20 | 33.43340 | -111.99651 | 1123 ft | 0 kts | 0° |